Time;durP1;ratioP1;P1;durP2;ratioP2;P2;SDS_P1;SDS_P2;PMS_P1;PMS_P2;Temp;Humidity;BMP_temperature;BMP_pressure;BME280_temperature;BME280_humidity;BME280_pressure;Samples;Min_cycle;Max_cycle;Signal;HPM_P1;HPM_P2
2022/07/27 03:01:59;;;;;;;6.45;3.10;;;12.90;99.90;;;;;;6278217;22;20023;-86
2022/07/27 03:04:28;;;;;;;8.40;3.25;;;12.90;99.90;;;;;;6283949;22;20082;-86
2022/07/27 03:07:36;;;;;;;;;;;;;;;;;;;;;
2022/07/27 03:10:38;;;;;;;9.15;3.28;;;12.80;99.90;;;;;;6308079;22;20090;-84
2022/07/27 03:13:16;;;;;;;9.57;3.20;;;12.80;99.90;;;;;;6275241;22;20016;-86
2022/07/27 03:15:41;;;;;;;7.05;3.30;;;12.80;99.90;;;;;;6283292;22;20015;-88
2022/07/27 03:18:07;;;;;;;5.47;3.20;;;12.70;99.90;;;;;;6283334;22;20022;-86
2022/07/27 03:20:33;;;;;;;5.55;2.90;;;12.80;99.90;;;;;;6258975;22;20099;-84
2022/07/27 03:23:06;;;;;;;5.57;2.60;;;12.70;99.90;;;;;;6311454;22;20444;-90
2022/07/27 03:25:35;;;;;;;7.72;2.80;;;12.70;99.90;;;;;;6260775;22;20011;-90
2022/07/27 03:28:38;;;;;;;;;;;;;;;;;;;;;
2022/07/27 03:32:01;;;;;;;6.90;2.70;;;12.60;99.90;;;;;;6188009;23;20104;-87
2022/07/27 03:35:20;;;;;;;;;;;;;;;;;;;;;
2022/07/27 03:38:23;;;;;;;;;;;;;;;;;;;;;
2022/07/27 03:41:28;;;;;;;;;;;;;;;;;;;;;
2022/07/27 03:47:41;;;;;;;8.35;3.50;;;12.50;99.90;;;;;;6109757;23;20024;-90
2022/07/27 03:50:10;;;;;;;6.45;2.80;;;12.50;99.90;;;;;;6195818;23;20020;-90
2022/07/27 03:56:15;;;;;;;6.82;2.72;;;12.50;99.90;;;;;;6215727;23;20020;-89
2022/07/27 03:58:47;;;;;;;7.10;2.80;;;12.50;99.90;;;;;;6170071;23;20413;-87
2022/07/27 04:01:53;;;;;;;;;;;;;;;;;;;;;
2022/07/27 04:04:50;;;;;;;;;;;;;;;;;;;;;
2022/07/27 04:12:02;;;;;;;;;;;;;;;;;;;;;
2022/07/27 04:15:35;;;;;;;10.65;3.40;;;12.50;99.90;;;;;;6311320;22;20019;-91
2022/07/27 04:18:23;;;;;;;8.77;3.28;;;12.40;99.90;;;;;;6286125;22;20015;-90
2022/07/27 04:21:33;;;;;;;;;;;;;;;;;;;;;
2022/07/27 04:24:34;;;;;;;;;;;;;;;;;;;;;
2022/07/27 04:27:16;;;;;;;7.88;3.60;;;12.40;99.90;;;;;;6193904;23;20013;-90
2022/07/27 04:29:55;;;;;;;;;;;;;;;;;;;;;
2022/07/27 04:32:23;;;;;;;8.73;3.53;;;12.50;99.90;;;;;;6193797;23;20412;-88
2022/07/27 04:35:22;;;;;;;;;;;;;;;;;;;;;
2022/07/27 04:37:59;;;;;;;7.43;3.25;;;12.60;99.90;;;;;;6191318;23;20044;-87
2022/07/27 04:40:44;;;;;;;10.77;2.92;;;12.50;99.90;;;;;;6193185;23;20013;-89
2022/07/27 04:43:09;;;;;;;9.05;3.42;;;12.50;99.90;;;;;;6194308;23;20068;-90
2022/07/27 04:45:38;;;;;;;5.57;3.10;;;12.50;99.90;;;;;;6185358;23;20112;-89
2022/07/27 04:48:20;;;;;;;5.97;3.20;;;12.50;99.90;;;;;;6198827;23;20020;-88
2022/07/27 04:50:46;;;;;;;11.32;3.50;;;12.50;99.90;;;;;;6225938;22;20055;-91
2022/07/27 04:53:16;;;;;;;10.48;3.50;;;12.50;99.90;;;;;;6259412;22;20007;-89
2022/07/27 04:56:08;;;;;;;7.15;2.83;;;12.50;99.90;;;;;;6260567;22;20090;-89
2022/07/27 04:59:23;;;;;;;5.85;3.17;;;12.60;99.90;;;;;;6283619;22;20020;-90
2022/07/27 05:02:28;;;;;;;;;;;;;;;;;;;;;
2022/07/27 05:05:06;;;;;;;;;;;;;;;;;;;;;
2022/07/27 05:07:43;;;;;;;7.32;2.90;;;12.70;99.90;;;;;;6254416;22;19935;-88
2022/07/27 05:10:22;;;;;;;6.20;2.53;;;12.80;99.90;;;;;;6253627;22;20069;-90
2022/07/27 05:12:53;;;;;;;5.88;3.08;;;12.90;99.90;;;;;;6229064;22;20034;-90
2022/07/27 05:15:49;;;;;;;;;;;;;;;;;;;;;
2022/07/27 05:18:38;;;;;;;8.10;2.45;;;13.00;99.90;;;;;;6255114;22;20019;-91
2022/07/27 05:21:32;;;;;;;;;;;;;;;;;;;;;
2022/07/27 05:24:02;;;;;;;6.32;2.60;;;13.10;99.90;;;;;;6252921;22;20357;-87
2022/07/27 05:26:40;;;;;;;5.18;2.50;;;13.20;99.90;;;;;;6269876;22;20018;-88
2022/07/27 05:29:19;;;;;;;;;;;;;;;;;;;;;
2022/07/27 05:32:01;;;;;;;8.60;2.70;;;13.30;99.90;;;;;;6284668;22;20375;-86
2022/07/27 05:34:30;;;;;;;5.72;2.42;;;13.30;99.90;;;;;;6260176;22;20015;-89
2022/07/27 05:36:58;;;;;;;9.27;2.92;;;13.30;99.90;;;;;;6286309;22;20016;-88
2022/07/27 05:39:37;;;;;;;;;;;;;;;;;;;;;
2022/07/27 05:42:18;;;;;;;5.43;2.38;;;13.30;99.90;;;;;;6285663;22;20016;-87
2022/07/27 05:48:33;;;;;;;6.30;2.53;;;13.40;99.90;;;;;;6316670;22;20019;-88
2022/07/27 05:51:06;;;;;;;7.93;2.42;;;13.50;99.90;;;;;;6261141;22;20011;-89
2022/07/27 05:53:46;;;;;;;9.63;2.20;;;13.50;99.90;;;;;;6262657;22;20016;-91
2022/07/27 05:56:16;;;;;;;12.32;2.72;;;13.50;99.90;;;;;;6285928;22;20391;-86
2022/07/27 05:59:05;;;;;;;13.85;2.83;;;13.50;99.90;;;;;;6263111;22;20035;-89
2022/07/27 06:01:35;;;;;;;8.43;2.42;;;13.60;99.90;;;;;;6259629;22;20019;-91
2022/07/27 06:04:30;;;;;;;6.63;2.75;;;13.70;99.90;;;;;;6260782;22;20318;-89
2022/07/27 06:10:01;;;;;;;8.45;2.28;;;13.80;99.90;;;;;;6297416;22;20026;-88
2022/07/27 06:12:51;;;;;;;9.70;2.05;;;13.90;99.90;;;;;;6281365;22;20011;-90
2022/07/27 06:15:24;;;;;;;9.27;3.08;;;13.90;99.90;;;;;;6306875;22;20082;-88
2022/07/27 06:17:58;;;;;;;7.85;2.30;;;13.90;99.90;;;;;;6279491;22;20068;-89
2022/07/27 06:20:34;;;;;;;5.55;2.10;;;13.90;99.90;;;;;;6291146;22;20404;-88
2022/07/27 06:23:02;;;;;;;7.88;2.20;;;14.00;99.90;;;;;;6264140;22;20011;-89
2022/07/27 06:25:46;;;;;;;9.32;2.45;;;14.00;99.90;;;;;;6287534;22;20015;-89
2022/07/27 06:28:46;;;;;;;10.30;2.45;;;14.00;99.90;;;;;;6262336;22;20381;-89
2022/07/27 06:35:30;;;;;;;;;;;;;;;;;;;;;
2022/07/27 06:38:38;;;;;;;;;;;;;;;;;;;;;
2022/07/27 06:41:57;;;;;;;10.18;2.33;;;14.00;99.90;;;;;;6247074;22;20546;-90
2022/07/27 06:49:05;;;;;;;7.13;2.33;;;14.10;99.90;;;;;;6132853;23;20501;-94
2022/07/27 06:51:39;;;;;;;11.10;2.75;;;14.10;99.90;;;;;;6110154;23;20022;-90
2022/07/27 06:54:16;;;;;;;7.88;2.30;;;14.10;99.90;;;;;;6190123;23;20362;-89
2022/07/27 06:56:51;;;;;;;7.28;2.15;;;14.30;99.90;;;;;;6172944;23;20043;-91
2022/07/27 07:58:26;;;;;;;;;;;;;;;;;;;;;
2022/07/27 08:01:45;;;;;;;;;;;;;;;;;;;;;
2022/07/27 08:22:53;;;;;;;7.20;1.03;;;16.50;99.90;;;;;;6299552;22;19926;-88
2022/07/27 08:25:43;;;;;;;6.30;1.00;;;16.60;99.90;;;;;;6144193;22;20017;-89
2022/07/27 08:28:12;;;;;;;7.63;1.35;;;16.70;99.90;;;;;;6260453;22;20112;-88
2022/07/27 08:33:07;;;;;;;6.05;1.00;;;16.80;99.90;;;;;;6309322;22;20437;-87
2022/07/27 08:35:34;;;;;;;6.43;1.10;;;16.90;99.90;;;;;;6283282;22;20017;-86
2022/07/27 08:38:01;;;;;;;8.65;1.23;;;16.90;99.90;;;;;;6283208;22;20051;-86
2022/07/27 08:40:27;;;;;;;3.33;1.15;;;16.90;99.90;;;;;;6310070;22;19995;-87
2022/07/27 08:42:53;;;;;;;5.53;1.15;;;16.90;99.90;;;;;;6283380;22;20015;-87
2022/07/27 08:45:45;;;;;;;;;;;;;;;;;;;;;
2022/07/27 08:49:00;;;;;;;4.20;1.02;;;17.00;99.90;;;;;;6283611;22;20011;-88
2022/07/27 08:52:33;;;;;;;3.85;1.35;;;17.10;99.90;;;;;;6167169;23;20012;-88
2022/07/27 08:55:02;;;;;;;4.95;1.15;;;17.20;99.90;;;;;;6072861;23;20087;-85
2022/07/27 08:57:46;;;;;;;;;;;;;;;;;;;;;
2022/07/27 09:00:22;;;;;;;4.53;1.13;;;17.50;99.90;;;;;;6072477;23;20067;-89
2022/07/27 09:03:08;;;;;;;;;;;17.60;99.90;;;;;;6074212;23;20074;-88
2022/07/27 09:06:07;;;;;;;5.30;1.20;;;17.40;99.90;;;;;;6044736;23;20292;-89
2022/07/27 09:12:42;;;;;;;;;;;;;;;;;;;;;
2022/07/27 09:15:39;;;;;;;8.07;1.60;;;17.20;99.90;;;;;;6280566;22;20463;-90
2022/07/27 09:28:12;;;;;;;3.80;1.00;;;17.40;99.90;;;;;;6248477;23;19922;-87
2022/07/27 09:33:14;;;;;;;8.98;1.30;;;17.50;99.90;;;;;;6306952;22;20019;-86
2022/07/27 10:10:40;;;;;;;5.97;1.38;;;18.20;99.90;;;;;;6291029;22;20034;-90
2022/07/27 10:13:59;;;;;;;6.72;1.58;;;18.30;99.90;;;;;;6282281;22;20102;-89
2022/07/27 10:16:38;;;;;;;4.70;1.10;;;18.50;99.90;;;;;;6191232;23;20043;-89
2022/07/27 11:01:58;;;;;;;5.55;1.10;;;19.70;99.90;;;;;;6282817;22;20030;-75
2022/07/27 11:04:26;;;;;;;5.20;1.40;;;19.90;99.90;;;;;;6283624;22;20007;-88
2022/07/27 11:07:02;;;;;;;9.77;1.98;;;20.00;99.90;;;;;;6258317;22;20018;-90
2022/07/27 11:41:29;;;;;;;5.90;1.40;;;18.50;99.90;;;;;;6284838;22;20110;-88
2022/07/27 11:44:00;;;;;;;3.08;1.10;;;18.60;99.90;;;;;;6257248;22;20054;-86
2022/07/27 12:51:39;;;;;;;4.22;0.60;;;20.50;98.60;;;;;;6125107;23;20056;-81
2022/07/27 13:06:56;;;;;;;;;;;;;;;;;;;;;
2022/07/27 13:09:22;;;;;;;3.83;0.70;;;20.10;99.90;;;;;;6280836;22;20015;-87
2022/07/27 13:11:47;;;;;;;3.80;0.70;;;20.10;99.90;;;;;;6250268;22;20077;-86
2022/07/27 13:14:13;;;;;;;4.35;0.80;;;20.10;99.90;;;;;;6250330;22;20012;-87
2022/07/27 13:16:39;;;;;;;3.20;0.80;;;20.10;99.90;;;;;;6275837;22;20080;-85
2022/07/27 13:19:04;;;;;;;2.83;0.73;;;20.10;99.90;;;;;;6275962;22;20011;-85
2022/07/27 13:21:30;;;;;;;2.30;0.77;;;20.10;99.90;;;;;;6275496;22;20464;-88
2022/07/27 13:23:56;;;;;;;4.55;1.00;;;20.10;99.90;;;;;;6275470;22;20023;-87
2022/07/27 13:26:22;;;;;;;2.92;0.68;;;20.20;99.90;;;;;;6275799;22;20007;-85
2022/07/27 13:28:49;;;;;;;3.75;0.80;;;20.30;99.90;;;;;;6275746;22;20015;-85
2022/07/27 13:31:15;;;;;;;2.08;0.63;;;20.40;99.90;;;;;;6275721;22;20058;-87
2022/07/27 13:33:40;;;;;;;3.30;0.70;;;20.40;99.90;;;;;;6250399;22;20035;-85
2022/07/27 13:36:08;;;;;;;5.30;0.65;;;20.50;99.90;;;;;;6249694;22;20015;-86
2022/07/27 13:38:34;;;;;;;3.15;0.73;;;20.80;99.90;;;;;;6251007;22;20043;-85
2022/07/27 13:40:59;;;;;;;5.70;0.90;;;20.90;99.90;;;;;;6275610;22;20066;-86
2022/07/27 13:43:25;;;;;;;4.13;0.70;;;21.00;99.90;;;;;;6276765;22;20008;-84
2022/07/27 13:45:51;;;;;;;3.90;1.00;;;21.10;99.90;;;;;;6276464;22;20392;-88
2022/07/27 13:48:26;;;;;;;;;;;;;;;;;;;;;
2022/07/27 13:51:16;;;;;;;2.50;0.73;;;21.60;99.90;;;;;;6277977;22;20050;-88
2022/07/27 13:57:51;;;;;;;2.90;0.60;;;21.60;99.90;;;;;;6277928;22;20031;-90
2022/07/27 14:03:30;;;;;;;4.43;0.70;;;21.20;99.90;;;;;;6289328;22;20080;-90
2022/07/27 14:13:25;;;;;;;2.95;0.80;;;20.80;99.90;;;;;;6276534;22;20086;-90
2022/07/27 14:19:35;;;;;;;3.42;0.70;;;20.70;99.90;;;;;;6270789;22;20027;-91
2022/07/27 14:22:02;;;;;;;;;;;20.60;99.90;;;;;;6251961;22;20475;-89
2022/07/27 14:24:30;;;;;;;4.70;0.73;;;20.60;99.90;;;;;;6253645;22;19947;-90
2022/07/27 14:27:55;;;;;;;;;;;;;;;;;;;;;
2022/07/27 14:30:39;;;;;;;2.38;0.70;;;20.60;99.90;;;;;;6190219;22;20038;-88
2022/07/27 14:33:08;;;;;;;1.83;0.60;;;20.60;99.90;;;;;;6253523;22;20018;-87
2022/07/27 14:35:38;;;;;;;6.80;0.95;;;20.60;99.90;;;;;;6253717;22;20026;-89
2022/07/27 14:38:04;;;;;;;4.97;0.80;;;20.60;99.90;;;;;;6251232;22;20063;-86
2022/07/27 14:40:45;;;;;;;2.83;0.73;;;20.60;99.90;;;;;;6249675;22;20019;-88
2022/07/27 14:43:11;;;;;;;5.00;0.90;;;20.70;99.90;;;;;;6196492;23;20050;-84
2022/07/27 14:45:36;;;;;;;2.97;0.70;;;20.60;99.90;;;;;;6220833;23;20322;-86
2022/07/27 14:48:14;;;;;;;2.97;0.75;;;20.60;99.90;;;;;;6247971;23;20014;-87
2022/07/27 14:50:43;;;;;;;7.22;2.40;;;20.70;99.90;;;;;;6194492;23;20450;-87
2022/07/27 14:53:12;;;;;;;6.45;1.92;;;20.50;99.90;;;;;;6195392;23;20012;-88
2022/07/27 14:55:41;;;;;;;14.77;8.75;;;20.40;99.90;;;;;;6195308;23;20489;-89
2022/07/27 14:58:10;;;;;;;8.38;4.18;;;20.30;99.90;;;;;;6195152;23;20323;-87
2022/07/27 15:00:39;;;;;;;6.25;3.70;;;20.20;99.90;;;;;;6193519;23;20020;-86
2022/07/27 15:03:10;;;;;;;14.60;8.77;;;20.20;99.90;;;;;;6193598;23;20083;-86
2022/07/27 15:05:39;;;;;;;9.65;4.50;;;20.20;99.90;;;;;;6195128;23;20016;-87
2022/07/27 15:08:08;;;;;;;9.57;4.40;;;20.40;99.90;;;;;;6196582;23;20020;-87
2022/07/27 15:10:34;;;;;;;6.15;3.05;;;20.70;99.90;;;;;;6195816;23;20051;-88
2022/07/27 15:13:00;;;;;;;7.03;3.92;;;20.80;99.90;;;;;;6250403;23;20012;-87
2022/07/27 15:15:26;;;;;;;2.85;0.90;;;20.90;99.90;;;;;;6222502;23;20020;-88
2022/07/27 15:17:51;;;;;;;2.63;0.70;;;21.10;99.90;;;;;;6196523;23;20016;-87
2022/07/27 15:20:17;;;;;;;3.17;0.70;;;21.10;99.20;;;;;;6247867;23;20015;-86
2022/07/27 15:22:43;;;;;;;2.97;0.85;;;21.00;98.90;;;;;;6248276;23;20012;-87
2022/07/27 15:25:09;;;;;;;5.40;0.93;;;20.80;99.70;;;;;;6221228;23;20019;-88
2022/07/27 15:27:34;;;;;;;5.13;0.90;;;20.60;99.70;;;;;;6248277;23;20012;-87
2022/07/27 15:30:00;;;;;;;5.50;0.80;;;20.50;99.90;;;;;;6248330;23;20004;-87
2022/07/27 15:32:26;;;;;;;4.40;0.70;;;20.50;99.90;;;;;;6195952;23;20055;-85
2022/07/27 15:34:52;;;;;;;3.60;0.80;;;20.50;99.90;;;;;;6221539;23;20484;-85
2022/07/27 15:37:17;;;;;;;3.50;0.90;;;20.70;99.90;;;;;;6221618;23;20020;-87
2022/07/27 15:39:43;;;;;;;2.88;0.90;;;20.70;99.90;;;;;;6248423;23;20364;-85
2022/07/27 15:42:09;;;;;;;2.88;0.93;;;20.60;99.90;;;;;;6220499;23;20012;-86
2022/07/27 15:44:35;;;;;;;4.10;0.73;;;20.70;99.90;;;;;;6221373;23;20338;-89
2022/07/27 15:47:02;;;;;;;4.80;1.00;;;20.90;99.90;;;;;;6221237;23;20044;-87
2022/07/27 15:49:31;;;;;;;2.97;0.80;;;21.10;99.90;;;;;;6221344;23;20035;-87
2022/07/27 15:51:57;;;;;;;3.17;1.23;;;21.10;99.10;;;;;;6248120;23;20015;-87
2022/07/27 15:54:23;;;;;;;2.38;0.70;;;20.90;99.40;;;;;;6221769;23;20333;-85
2022/07/27 15:56:49;;;;;;;4.82;0.80;;;20.70;99.20;;;;;;6195994;23;20070;-87
2022/07/27 15:59:15;;;;;;;4.85;0.88;;;20.40;99.60;;;;;;6221089;23;20023;-86
2022/07/27 16:01:42;;;;;;;4.07;0.85;;;20.40;99.90;;;;;;6221574;23;20090;-86
2022/07/27 16:04:08;;;;;;;4.22;1.15;;;20.50;99.90;;;;;;6221271;23;20437;-88
2022/07/27 16:06:34;;;;;;;4.38;0.80;;;20.80;99.90;;;;;;6220772;23;20027;-86
2022/07/27 16:09:00;;;;;;;5.28;1.00;;;20.90;99.90;;;;;;6196058;23;20023;-86
2022/07/27 16:11:26;;;;;;;6.30;0.80;;;20.90;99.90;;;;;;6220765;23;20012;-85
2022/07/27 16:13:52;;;;;;;4.03;0.75;;;20.80;99.90;;;;;;6246202;23;20087;-84
2022/07/27 16:16:23;;;;;;;3.03;0.73;;;20.70;99.20;;;;;;6248280;23;20008;-83
2022/07/27 16:18:52;;;;;;;2.78;0.65;;;20.60;98.90;;;;;;6220166;23;20016;-78
2022/07/27 16:21:19;;;;;;;5.13;0.70;;;20.70;98.70;;;;;;6196274;23;20058;-88
2022/07/27 16:23:45;;;;;;;5.00;1.52;;;20.90;98.90;;;;;;6197410;23;20039;-87
2022/07/27 16:26:10;;;;;;;2.63;0.60;;;21.00;98.80;;;;;;6222015;23;20354;-87
2022/07/27 16:28:41;;;;;;;2.88;0.80;;;21.10;99.20;;;;;;6196066;23;20011;-87
2022/07/27 16:31:09;;;;;;;1.85;0.70;;;21.10;98.80;;;;;;6196393;23;20012;-87
2022/07/27 16:33:35;;;;;;;2.13;0.80;;;21.10;98.60;;;;;;6197123;23;20434;-88
2022/07/27 16:36:01;;;;;;;4.53;0.85;;;21.10;98.10;;;;;;6222084;23;20092;-85
2022/07/27 16:38:27;;;;;;;4.32;0.95;;;21.10;98.40;;;;;;6196594;23;20016;-88
2022/07/27 16:40:53;;;;;;;6.15;1.23;;;21.10;98.60;;;;;;6222176;23;20087;-87
2022/07/27 16:43:19;;;;;;;7.13;0.93;;;21.20;98.40;;;;;;6197131;23;20079;-88
2022/07/27 16:45:45;;;;;;;4.47;1.20;;;21.10;98.40;;;;;;6222397;23;20019;-88
2022/07/27 16:48:11;;;;;;;4.75;0.90;;;20.90;98.80;;;;;;6221804;23;20087;-87
2022/07/27 16:50:37;;;;;;;5.25;0.80;;;20.90;99.10;;;;;;6221830;23;20012;-87
2022/07/27 16:53:03;;;;;;;3.17;0.73;;;20.90;99.80;;;;;;6220971;23;20008;-87
2022/07/27 16:55:28;;;;;;;4.05;0.70;;;21.00;99.90;;;;;;6248540;23;20342;-89
2022/07/27 16:57:54;;;;;;;4.65;1.05;;;21.10;99.90;;;;;;6221254;23;20012;-87
2022/07/27 17:00:20;;;;;;;3.38;0.70;;;21.10;99.70;;;;;;6222299;23;20461;-87
2022/07/27 17:02:46;;;;;;;4.53;0.80;;;21.10;99.50;;;;;;6197291;23;20097;-87
2022/07/27 17:05:15;;;;;;;3.95;0.80;;;21.10;99.50;;;;;;6195531;23;20022;-82
2022/07/27 17:07:47;;;;;;;2.08;0.88;;;20.90;98.90;;;;;;6197231;23;20012;-88
2022/07/27 17:10:12;;;;;;;2.88;0.75;;;20.60;98.90;;;;;;6194143;23;20043;-83
2022/07/27 17:12:38;;;;;;;4.13;1.20;;;20.40;98.90;;;;;;6246753;23;20016;-84
2022/07/27 17:15:04;;;;;;;3.97;0.90;;;20.30;99.10;;;;;;6219299;23;20086;-82
2022/07/27 17:17:29;;;;;;;3.78;0.80;;;20.40;99.60;;;;;;6219241;23;20074;-83
2022/07/27 17:19:55;;;;;;;5.43;1.10;;;20.40;99.50;;;;;;6219223;23;20337;-85
2022/07/27 17:22:21;;;;;;;4.10;0.65;;;20.40;99.90;;;;;;6219364;23;20066;-83
2022/07/27 17:24:47;;;;;;;2.90;0.98;;;20.30;99.90;;;;;;6246368;23;20077;-84
2022/07/27 17:27:12;;;;;;;3.90;0.90;;;20.20;99.90;;;;;;6194291;23;20016;-84
2022/07/27 17:29:39;;;;;;;6.72;1.20;;;20.10;99.90;;;;;;6219789;23;20087;-83
2022/07/27 17:32:05;;;;;;;1.83;0.60;;;20.10;99.90;;;;;;6246473;23;20030;-83
2022/07/27 17:34:30;;;;;;;4.90;1.08;;;20.00;99.90;;;;;;6246393;23;20079;-85
2022/07/27 17:36:56;;;;;;;6.72;1.25;;;20.00;99.90;;;;;;6220632;23;20334;-84
2022/07/27 17:39:22;;;;;;;1.92;0.70;;;20.10;99.90;;;;;;6195017;23;20338;-84
2022/07/27 17:41:48;;;;;;;4.38;0.70;;;20.10;99.90;;;;;;6221181;23;20016;-84
2022/07/27 17:44:14;;;;;;;4.53;1.50;;;20.00;99.90;;;;;;6221391;23;20020;-83
2022/07/27 17:46:40;;;;;;;3.80;0.70;;;20.00;99.90;;;;;;6248154;23;20016;-79
2022/07/27 17:49:05;;;;;;;2.08;0.70;;;19.90;99.90;;;;;;6221074;23;20017;-81
2022/07/27 17:51:32;;;;;;;2.53;0.70;;;19.90;99.90;;;;;;6221396;23;20503;-84
2022/07/27 17:53:57;;;;;;;3.85;0.80;;;19.90;99.90;;;;;;6222493;23;20023;-83
2022/07/27 17:56:23;;;;;;;4.88;0.80;;;19.90;99.90;;;;;;6221751;23;20020;-85
2022/07/27 17:58:49;;;;;;;4.80;0.90;;;19.90;99.90;;;;;;6197311;23;20011;-84
2022/07/27 18:01:15;;;;;;;3.78;1.20;;;20.00;99.90;;;;;;6221601;23;20067;-84
2022/07/27 18:03:40;;;;;;;4.93;1.05;;;19.90;99.90;;;;;;6221629;23;20015;-85
2022/07/27 18:06:07;;;;;;;4.97;1.00;;;19.90;99.90;;;;;;6247176;23;20012;-84
2022/07/27 18:08:32;;;;;;;4.75;0.70;;;19.80;99.90;;;;;;6221638;23;20016;-83
2022/07/27 18:10:58;;;;;;;5.15;1.10;;;19.70;99.90;;;;;;6248668;23;20303;-85
2022/07/27 18:13:24;;;;;;;5.68;0.90;;;19.70;99.90;;;;;;6248580;23;20008;-83
2022/07/27 18:15:50;;;;;;;4.90;0.98;;;19.70;99.90;;;;;;6221406;23;20020;-85
2022/07/27 18:18:18;;;;;;;2.80;0.80;;;19.70;99.90;;;;;;6221269;23;20091;-84
2022/07/27 18:20:46;;;;;;;3.15;0.70;;;19.60;99.90;;;;;;6221495;23;20442;-85
2022/07/27 18:23:16;;;;;;;4.40;0.90;;;19.60;99.90;;;;;;6221296;23;20338;-83
2022/07/27 18:25:45;;;;;;;3.47;0.77;;;19.50;99.90;;;;;;6220991;23;20020;-84
2022/07/27 18:28:14;;;;;;;3.65;0.90;;;19.40;99.90;;;;;;6221311;23;20319;-83
2022/07/27 18:30:41;;;;;;;3.00;0.77;;;19.30;99.90;;;;;;6221124;23;20016;-83
2022/07/27 18:33:06;;;;;;;3.28;0.82;;;19.20;99.90;;;;;;6248583;23;20047;-83
2022/07/27 18:35:32;;;;;;;3.40;0.93;;;19.10;99.90;;;;;;6248454;23;20092;-84
2022/07/27 18:37:58;;;;;;;5.20;0.90;;;18.90;99.90;;;;;;6221377;23;20035;-85
2022/07/27 18:40:23;;;;;;;3.90;0.98;;;18.80;99.90;;;;;;6220867;23;20027;-84
2022/07/27 18:42:49;;;;;;;5.20;0.88;;;18.70;99.90;;;;;;6248667;23;20012;-84
2022/07/27 18:45:37;;;;;;;2.47;0.70;;;18.50;99.90;;;;;;6248682;23;20398;-86
2022/07/27 18:49:47;;;;;;;;;;;;;;;;;;;;;
2022/07/27 19:21:03;;;;;;;3.63;0.93;;;17.40;99.90;;;;;;6184220;23;20474;-85
